Aérodrome :
LOGIN :

S'inscrire | Disclaimer

   EN    FR    IT 

 










Légende :    VFR   VFR Marginal   IFR   IFR Intensif   IFR Très Intensif
Visi : 
Plafond : 
>= 8 km
>= 3000ft
5 à 8 km
1000 à 3000 ft
1500m à 5 km
500 à 1000 ft
800 à 1500m
200 à 500 ft
< 800m
< 200 ft
Symboles :   Orages  Brouillard  Fortes neiges  Fortes précipitations  Vent > 20 kt
SIGMETs :   Divers  Orages  Givrage  Turbulence  Onde Orograph.  Cendres Volcan.






- Altitude de l'aérodrome : 26 ft
- Code IATA : BIA


LFKB - Bastia

DERNIER METAR :
  • 021400Z AUTO 12009KT 9999 VCTS ///CB 29/23 Q1011 BECMG NSW NSC

METARs EXPIRÉS :
  • 021330Z AUTO 13008KT 100V160 9999 ///CB 29/22 Q1011 BECMG NSC
  • 021300Z AUTO 13007KT 090V170 9999 SCT032 29/23 Q1011 NOSIG
  • 021230Z AUTO 12007KT 080V140 9999 BKN026 29/22 Q1011 NOSIG
  • 021200Z AUTO 13007KT 100V160 9999 BKN026 29/22 Q1011 NOSIG
  • 021130Z AUTO 13007KT 090V180 9999 BKN023 28/22 Q1011 NOSIG

TAF TAF LFKB
Valide du 02 à 09h jusqu'au 03 à 09h UTC


020800Z 0209/0309 10010KT 9999 NSC TX30/0212Z TN19/0303Z
BECMG 0218/0221 22006KT
TEMPO 0301/0306 3000 BR BKN010
ATIS : +33 4 95 59 19 40



MET'MAP, la Météo Aéronautique d'un coup d'oeil ! - Copyright ORBIFLY Décembre 2007 - Disclaimer

ORBIFLY MET'MAP TEAM :

Programmation & Développement : Alexandra Zaïnal
Sur une idée originale de : Baudouin d'Aumeries
Assistance à la programmation : Marc-Olivier Méhu
Soutien technique & logistique : Manuel Goepfert

Contact : metmap@orbifly.com




SOURCES & CREDITS :

   NOAA